createdAt,value
2024-02-06T00:02:10.805Z,100.00
2024-02-06T00:05:13.450Z,100.00
2024-02-06T00:08:15.723Z,100.00
2024-02-06T00:11:19.321Z,100.00
2024-02-06T00:14:21.625Z,100.00
2024-02-06T00:17:24.130Z,100.00
2024-02-06T00:20:26.387Z,100.00
2024-02-06T00:23:28.870Z,100.00
2024-02-06T00:26:31.209Z,100.00
2024-02-06T00:29:33.719Z,100.00
2024-02-06T00:32:36.090Z,100.00
2024-02-06T00:35:39.124Z,100.00
2024-02-06T00:38:41.348Z,100.00
2024-02-06T00:41:44.410Z,100.00
2024-02-06T00:44:46.648Z,100.00
2024-02-06T00:47:50.852Z,100.00
2024-02-06T00:50:53.284Z,100.00
2024-02-06T00:53:55.806Z,100.00
2024-02-06T00:56:57.955Z,100.00
2024-02-06T01:00:00.582Z,100.00
2024-02-06T01:03:03.369Z,100.00
2024-02-06T01:06:06.062Z,100.00
2024-02-06T01:09:08.229Z,100.00
2024-02-06T01:12:11.066Z,100.00
2024-02-06T01:15:13.443Z,100.00
2024-02-06T01:18:16.006Z,100.00
2024-02-06T01:21:18.300Z,100.00
2024-02-06T01:24:20.816Z,100.00
2024-02-06T01:27:23.284Z,100.00
2024-02-06T01:30:25.792Z,100.00
2024-02-06T01:33:28.185Z,100.00
2024-02-06T01:36:31.100Z,100.00
2024-02-06T01:39:33.268Z,99.63
2024-02-06T01:42:35.998Z,99.78
2024-02-06T01:45:38.245Z,96.91
2024-02-06T01:48:40.902Z,96.12
2024-02-06T01:51:46.761Z,95.94
2024-02-06T01:54:49.377Z,95.56
2024-02-06T01:57:52.515Z,95.91
2024-02-06T02:00:55.109Z,95.99
2024-02-06T02:03:59.011Z,95.00
2024-02-06T02:07:01.894Z,94.83
2024-02-06T02:10:04.850Z,94.97
2024-02-06T02:13:07.231Z,95.54
2024-02-06T02:16:09.840Z,96.29
2024-02-06T02:19:12.241Z,95.06
2024-02-06T02:22:14.831Z,93.68
2024-02-06T02:25:17.410Z,93.84
2024-02-06T02:28:20.647Z,94.14
2024-02-06T02:31:23.591Z,95.77
2024-02-06T02:34:26.235Z,96.60
2024-02-06T02:37:28.579Z,94.45
2024-02-06T02:40:31.059Z,94.26
2024-02-06T02:43:33.461Z,94.43
2024-02-06T02:46:36.088Z,92.17
2024-02-06T02:49:38.424Z,91.01
2024-02-06T02:52:40.993Z,89.72
2024-02-06T02:55:43.373Z,89.70
2024-02-06T02:58:47.255Z,90.20
2024-02-06T03:01:49.770Z,90.49
2024-02-06T03:04:52.472Z,90.29
2024-02-06T03:07:55.084Z,89.18
2024-02-06T03:10:57.572Z,88.96
2024-02-06T03:13:59.814Z,88.50
2024-02-06T03:17:02.315Z,87.20
2024-02-06T03:20:06.204Z,86.51
2024-02-06T03:23:08.808Z,85.05
2024-02-06T03:26:11.020Z,84.86
2024-02-06T03:29:13.540Z,82.08
2024-02-06T03:32:15.741Z,82.51
2024-02-06T03:35:18.394Z,81.30
2024-02-06T03:38:22.380Z,80.58
2024-02-06T03:41:24.808Z,79.05
2024-02-06T03:44:27.749Z,77.96
2024-02-06T03:47:30.375Z,76.94
2024-02-06T03:50:32.582Z,77.83
2024-02-06T03:53:35.065Z,77.91
2024-02-06T03:56:37.261Z,76.09
2024-02-06T03:59:40.912Z,74.86
2024-02-06T04:02:43.180Z,74.99
2024-02-06T04:05:46.598Z,72.62
2024-02-06T04:08:49.706Z,71.36
2024-02-06T04:11:52.242Z,69.65
2024-02-06T04:14:54.388Z,68.14
2024-02-06T04:17:57.012Z,66.13
2024-02-06T04:20:59.342Z,64.10
2024-02-06T04:24:02.031Z,63.25
2024-02-06T04:27:04.763Z,67.55
2024-02-06T04:30:08.695Z,80.11
2024-02-06T04:33:10.996Z,88.61
2024-02-06T04:36:13.619Z,90.86
2024-02-06T04:39:16.663Z,92.79
2024-02-06T04:42:19.205Z,94.52
2024-02-06T04:45:21.370Z,97.26
2024-02-06T04:48:23.868Z,98.40
2024-02-06T04:51:26.283Z,99.66
2024-02-06T04:54:28.779Z,99.75
2024-02-06T04:57:30.919Z,100.00
2024-02-06T05:00:34.073Z,100.00
2024-02-06T05:03:36.485Z,100.00
2024-02-06T05:06:39.177Z,100.00
2024-02-06T05:09:41.340Z,100.00
2024-02-06T05:12:44.192Z,100.00
2024-02-06T05:15:46.455Z,100.00
2024-02-06T05:18:49.024Z,100.00
2024-02-06T05:21:51.755Z,100.00
2024-02-06T05:24:54.270Z,100.00
2024-02-06T05:27:58.120Z,98.97
2024-02-06T05:31:00.742Z,95.02
2024-02-06T05:34:03.096Z,91.57
2024-02-06T05:37:05.770Z,87.79
2024-02-06T05:40:12.713Z,86.85
2024-02-06T05:43:15.341Z,86.76
2024-02-06T05:46:17.637Z,84.34
2024-02-06T05:49:20.264Z,82.36
2024-02-06T05:52:22.859Z,79.54
2024-02-06T05:55:27.375Z,80.08
2024-02-06T05:58:29.745Z,81.41
2024-02-06T06:01:32.414Z,80.46
2024-02-06T06:04:35.125Z,80.38
2024-02-06T06:07:37.548Z,80.29
2024-02-06T06:10:40.147Z,81.29
2024-02-06T06:13:42.421Z,82.47
2024-02-06T06:16:45.057Z,83.11
2024-02-06T06:19:47.341Z,82.95
2024-02-06T06:22:49.974Z,82.20
2024-02-06T06:25:52.267Z,82.65
2024-02-06T06:28:54.767Z,82.98
2024-02-06T06:31:57.148Z,83.90
2024-02-06T06:34:59.706Z,84.12
2024-02-06T06:38:02.171Z,87.96
2024-02-06T06:41:04.840Z,92.73
2024-02-06T06:44:07.319Z,93.58
2024-02-06T06:47:12.228Z,92.78
2024-02-06T06:50:14.621Z,94.16
2024-02-06T06:53:17.466Z,95.96
2024-02-06T06:56:20.204Z,95.02
2024-02-06T06:59:22.961Z,92.64
2024-02-06T07:02:26.892Z,91.11
2024-02-06T07:05:31.745Z,91.29
2024-02-06T07:08:34.551Z,89.86
2024-02-06T07:11:37.782Z,89.19
2024-02-06T07:14:40.189Z,86.91
2024-02-06T07:17:42.981Z,85.26
2024-02-06T07:20:45.734Z,83.94
2024-02-06T07:23:48.296Z,82.32
2024-02-06T07:26:50.544Z,81.52
2024-02-06T07:29:53.151Z,82.17
2024-02-06T07:32:55.545Z,85.25
2024-02-06T07:35:58.136Z,86.94
2024-02-06T07:39:00.955Z,88.29
2024-02-06T07:42:03.695Z,90.40
2024-02-06T07:45:06.388Z,93.34
2024-02-06T07:48:09.267Z,100.00
2024-02-06T07:51:12.399Z,100.00
2024-02-06T07:54:14.913Z,100.00
2024-02-06T07:57:17.089Z,100.00
2024-02-06T08:00:20.189Z,100.00
2024-02-06T08:03:22.793Z,100.00
2024-02-06T08:06:25.135Z,95.89
2024-02-06T08:09:27.741Z,96.50
2024-02-06T08:12:29.905Z,96.96
2024-02-06T08:15:32.390Z,97.32
2024-02-06T08:18:34.795Z,97.12
2024-02-06T08:21:37.763Z,99.10
2024-02-06T08:24:39.935Z,99.09
2024-02-06T08:27:42.617Z,99.66
2024-02-06T08:30:49.120Z,99.51
2024-02-06T08:33:52.458Z,95.21
2024-02-06T08:36:54.981Z,93.04
2024-02-06T08:39:58.474Z,89.66
2024-02-06T08:43:01.031Z,84.36
2024-02-06T08:46:03.565Z,83.32
2024-02-06T08:49:06.134Z,81.01
2024-02-06T08:52:09.505Z,80.59
2024-02-06T08:55:11.982Z,81.58
2024-02-06T08:58:14.726Z,80.00
2024-02-06T09:01:18.173Z,74.23
2024-02-06T09:04:20.943Z,69.98
2024-02-06T09:07:27.162Z,70.47
2024-02-06T09:10:30.512Z,70.20
2024-02-06T09:13:33.203Z,67.76
2024-02-06T09:16:35.835Z,65.92
2024-02-06T09:19:42.068Z,64.11
2024-02-06T09:22:47.296Z,62.05
2024-02-06T09:25:51.190Z,60.44
2024-02-06T09:28:55.090Z,58.15
2024-02-06T09:31:57.945Z,56.09
2024-02-06T09:35:01.392Z,54.07
2024-02-06T09:38:04.158Z,52.94
2024-02-06T09:41:13.419Z,51.88
2024-02-06T09:44:17.348Z,51.01
2024-02-06T09:47:20.026Z,48.70
2024-02-06T09:50:22.584Z,49.28
2024-02-06T09:53:30.112Z,45.01
2024-02-06T09:56:32.368Z,39.75
2024-02-06T09:59:35.637Z,36.98
2024-02-06T10:02:42.964Z,35.58
2024-02-06T10:05:49.664Z,39.04
2024-02-06T10:08:52.139Z,37.94
2024-02-06T10:11:56.567Z,35.55
2024-02-06T10:14:59.052Z,35.37
2024-02-06T10:18:02.239Z,34.06
2024-02-06T10:21:04.626Z,34.92
2024-02-06T10:24:07.400Z,37.07
2024-02-06T10:27:10.036Z,37.12
2024-02-06T10:30:12.792Z,36.07
2024-02-06T10:33:16.449Z,32.97
2024-02-06T10:36:19.060Z,29.90
2024-02-06T10:39:21.877Z,23.56
2024-02-06T10:42:56.896Z,23.65
2024-02-06T10:45:58.539Z,25.71
2024-02-06T10:49:04.784Z,26.51
2024-02-06T10:52:08.737Z,27.46
2024-02-06T10:55:11.468Z,29.46
2024-02-06T10:58:18.834Z,28.85
2024-02-06T11:01:22.795Z,24.30
2024-02-06T11:04:27.104Z,22.67
2024-02-06T11:07:34.961Z,21.40
2024-02-06T11:10:41.211Z,19.73
2024-02-06T11:13:49.285Z,18.39
2024-02-06T11:16:56.616Z,19.89
2024-02-06T11:20:05.667Z,18.64
2024-02-06T11:23:09.060Z,17.87
2024-02-06T11:26:12.807Z,18.22
2024-02-06T11:29:16.266Z,15.58
2024-02-06T11:32:19.578Z,14.85
2024-02-06T11:35:29.078Z,16.61
2024-02-06T11:38:31.706Z,14.41
2024-02-06T11:41:34.072Z,13.93
2024-02-06T11:44:36.523Z,14.15
2024-02-06T11:47:40.310Z,13.80
2024-02-06T11:50:45.001Z,12.16
2024-02-06T11:53:47.407Z,12.09
2024-02-06T11:56:51.242Z,13.20
2024-02-06T11:59:55.804Z,12.06
2024-02-06T12:03:01.685Z,11.43
2024-02-06T12:15:32.654Z,15.92
2024-02-06T12:18:35.237Z,16.61
2024-02-06T12:21:37.714Z,19.51
2024-02-06T12:27:57.809Z,24.27
2024-02-06T12:31:01.871Z,27.29
2024-02-06T12:34:08.368Z,29.32
2024-02-06T12:37:14.156Z,30.89
2024-02-06T12:40:20.573Z,31.49
2024-02-06T12:43:23.288Z,32.07
2024-02-06T12:46:25.774Z,32.05
2024-02-06T12:49:28.948Z,32.11
2024-02-06T12:58:41.543Z,33.26
2024-02-06T13:01:44.442Z,33.82
2024-02-06T13:04:47.019Z,34.25
2024-02-06T13:07:49.746Z,34.31
2024-02-06T13:10:52.204Z,34.80
2024-02-06T13:13:56.666Z,35.20
2024-02-06T13:17:00.078Z,35.59
2024-02-06T13:20:11.541Z,36.37
2024-02-06T13:23:17.463Z,35.20
2024-02-06T13:26:23.384Z,34.80
2024-02-06T13:29:26.738Z,34.44
2024-02-06T13:32:29.358Z,33.99
2024-02-06T13:35:31.614Z,33.68
2024-02-06T13:38:34.340Z,34.18
2024-02-06T13:41:38.330Z,33.50
2024-02-06T13:44:41.759Z,33.22
2024-02-06T13:47:46.824Z,32.73
2024-02-06T13:50:49.577Z,32.60
2024-02-06T13:53:51.878Z,33.49
2024-02-06T13:56:55.919Z,34.25
2024-02-06T13:59:58.218Z,35.06
2024-02-06T14:03:00.714Z,35.00
2024-02-06T14:06:03.993Z,35.81
2024-02-06T14:09:06.420Z,36.21
2024-02-06T14:12:09.461Z,36.63
2024-02-06T14:15:11.611Z,36.99
2024-02-06T14:18:14.081Z,36.87
2024-02-06T14:21:16.421Z,38.02
2024-02-06T14:24:19.091Z,36.70
2024-02-06T14:27:23.105Z,36.83
2024-02-06T14:30:25.758Z,37.52
2024-02-06T14:33:28.139Z,35.77
2024-02-06T14:36:31.879Z,36.07
2024-02-06T14:39:34.273Z,35.94
2024-02-06T14:42:37.272Z,36.17
2024-02-06T14:45:39.532Z,36.79
2024-02-06T14:48:42.430Z,36.90
2024-02-06T14:51:44.692Z,36.89
2024-02-06T14:54:47.178Z,37.04
2024-02-06T14:57:49.401Z,36.81
2024-02-06T15:00:52.083Z,37.34
2024-02-06T15:03:57.232Z,37.46
2024-02-06T15:07:00.180Z,37.69
2024-02-06T15:10:02.768Z,38.56
2024-02-06T15:13:05.797Z,39.23
2024-02-06T15:16:08.546Z,39.26
2024-02-06T15:19:11.274Z,37.68
2024-02-06T15:22:13.968Z,38.07
2024-02-06T15:25:16.752Z,38.38
2024-02-06T15:28:18.983Z,38.67
2024-02-06T15:31:21.688Z,38.60
2024-02-06T15:34:26.617Z,38.67
2024-02-06T15:37:29.202Z,38.93
2024-02-06T15:40:31.616Z,39.39
2024-02-06T15:43:34.282Z,39.94
2024-02-06T15:46:36.538Z,39.98
2024-02-06T15:49:39.215Z,39.98
2024-02-06T15:52:42.281Z,39.68
2024-02-06T15:55:44.988Z,40.10
2024-02-06T15:58:47.393Z,40.87
2024-02-06T16:01:50.290Z,40.57
2024-02-06T16:04:53.041Z,41.10
2024-02-06T16:07:55.412Z,41.62
2024-02-06T16:10:58.097Z,41.63
2024-02-06T16:14:00.449Z,42.40
2024-02-06T16:17:04.569Z,42.45
2024-02-06T16:20:10.870Z,42.86
2024-02-06T16:23:13.501Z,42.53
2024-02-06T16:26:16.993Z,42.71
2024-02-06T16:29:19.549Z,43.48
2024-02-06T16:32:21.738Z,43.61
2024-02-06T16:35:24.416Z,43.53
2024-02-06T16:38:26.882Z,43.75
2024-02-06T16:41:31.017Z,44.05
2024-02-06T16:44:33.974Z,44.22
2024-02-06T16:47:36.612Z,44.23
2024-02-06T16:50:38.927Z,44.27
2024-02-06T16:53:43.197Z,44.29
2024-02-06T16:56:45.396Z,45.13
2024-02-06T16:59:48.385Z,44.86
2024-02-06T17:02:50.588Z,45.00
2024-02-06T17:05:53.501Z,45.17
